createdAt,value
2024-02-17T00:00:30.759Z,2.98
2024-02-17T00:03:24.628Z,2.94
2024-02-17T00:05:53.548Z,2.94
2024-02-17T00:08:21.886Z,2.93
2024-02-17T00:10:50.104Z,2.93
2024-02-17T00:13:18.421Z,2.95
2024-02-17T00:15:48.214Z,2.90
2024-02-17T00:18:16.720Z,2.84
2024-02-17T00:20:45.108Z,2.83
2024-02-17T00:23:13.302Z,2.82
2024-02-17T00:25:41.517Z,2.80
2024-02-17T00:28:09.752Z,2.78
2024-02-17T00:30:38.311Z,2.77
2024-02-17T00:33:07.151Z,2.80
2024-02-17T00:35:35.411Z,2.80
2024-02-17T00:38:03.936Z,2.77
2024-02-17T00:40:32.155Z,2.79
2024-02-17T00:43:00.369Z,2.80
2024-02-17T00:45:28.603Z,2.79
2024-02-17T00:47:56.946Z,2.76
2024-02-17T00:50:25.228Z,2.74
2024-02-17T00:52:54.263Z,2.70
2024-02-17T00:55:22.321Z,2.70
2024-02-17T00:57:50.572Z,2.72
2024-02-17T01:00:19.072Z,2.72
2024-02-17T01:02:47.352Z,2.72
2024-02-17T01:05:15.864Z,2.68
2024-02-17T01:07:44.475Z,2.68
2024-02-17T01:10:12.701Z,2.70
2024-02-17T01:12:41.674Z,2.65
2024-02-17T01:15:10.929Z,2.61
2024-02-17T01:17:39.315Z,2.60
2024-02-17T01:20:08.621Z,2.61
2024-02-17T01:22:36.910Z,2.65
2024-02-17T01:25:05.634Z,2.64
2024-02-17T01:27:34.190Z,2.65
2024-02-17T01:30:02.751Z,2.67
2024-02-17T01:32:31.177Z,2.69
2024-02-17T01:34:59.453Z,2.71
2024-02-17T01:37:28.141Z,2.73
2024-02-17T01:39:56.359Z,2.73
2024-02-17T01:42:24.508Z,2.70
2024-02-17T01:44:52.895Z,2.71
2024-02-17T01:47:22.463Z,2.71
2024-02-17T01:49:51.564Z,2.75
2024-02-17T01:52:20.459Z,2.74
2024-02-17T01:54:48.820Z,2.72
2024-02-17T01:57:17.673Z,2.74
2024-02-17T01:59:45.932Z,2.72
2024-02-17T02:02:14.496Z,2.71
2024-02-17T02:04:42.904Z,2.69
2024-02-17T02:07:11.187Z,2.72
2024-02-17T02:09:39.679Z,2.72
2024-02-17T02:12:08.455Z,2.73
2024-02-17T02:14:36.758Z,2.72
2024-02-17T02:17:04.980Z,2.70
2024-02-17T02:19:33.416Z,2.67
2024-02-17T02:22:01.729Z,2.66
2024-02-17T02:24:30.896Z,2.63
2024-02-17T02:26:59.267Z,2.57
2024-02-17T02:29:27.685Z,2.59
2024-02-17T02:31:56.913Z,2.58
2024-02-17T02:34:25.205Z,2.55
2024-02-17T02:36:53.473Z,2.52
2024-02-17T02:39:21.733Z,2.51
2024-02-17T02:41:50.595Z,2.51
2024-02-17T02:44:18.816Z,2.48
2024-02-17T02:46:47.033Z,2.45
2024-02-17T02:49:15.328Z,2.42
2024-02-17T02:51:43.837Z,2.41
2024-02-17T02:54:12.903Z,2.42
2024-02-17T02:56:41.320Z,2.40
2024-02-17T02:59:09.545Z,2.41
2024-02-17T03:01:37.800Z,2.40
2024-02-17T03:04:06.167Z,2.40
2024-02-17T03:06:36.113Z,2.42
2024-02-17T03:09:04.629Z,2.45
2024-02-17T03:11:34.202Z,2.49
2024-02-17T03:14:02.571Z,2.47
2024-02-17T03:16:31.007Z,2.46
2024-02-17T03:18:59.384Z,2.48
2024-02-17T03:21:27.871Z,2.48
2024-02-17T03:23:56.155Z,2.47
2024-02-17T03:26:24.381Z,2.51
2024-02-17T03:28:52.898Z,2.46
2024-02-17T03:31:23.132Z,2.46
2024-02-17T03:33:56.234Z,2.44
2024-02-17T03:36:25.013Z,2.45
2024-02-17T03:38:53.403Z,2.43
2024-02-17T03:41:21.677Z,2.41
2024-02-17T03:43:49.897Z,2.42
2024-02-17T03:46:18.065Z,2.43
2024-02-17T03:48:46.552Z,2.41
2024-02-17T03:51:15.258Z,2.42
2024-02-17T03:53:43.524Z,2.42
2024-02-17T03:56:15.579Z,2.41
2024-02-17T03:58:44.384Z,2.41
2024-02-17T04:01:12.710Z,2.42
2024-02-17T04:03:41.077Z,2.46
2024-02-17T04:06:10.030Z,2.48
2024-02-17T04:08:38.175Z,2.45
2024-02-17T04:11:06.722Z,2.41
2024-02-17T04:13:35.117Z,2.38
2024-02-17T04:16:03.436Z,2.36
2024-02-17T04:18:31.848Z,2.36
2024-02-17T04:21:00.178Z,2.35
2024-02-17T04:23:28.409Z,2.39
2024-02-17T04:25:57.822Z,2.39
2024-02-17T04:28:26.068Z,2.40
2024-02-17T04:30:54.923Z,2.42
2024-02-17T04:33:23.388Z,2.41
2024-02-17T04:35:53.009Z,2.43
2024-02-17T04:38:21.846Z,2.44
2024-02-17T04:40:49.955Z,2.45
2024-02-17T04:43:18.183Z,2.42
2024-02-17T04:45:46.517Z,2.44
2024-02-17T04:48:14.893Z,2.45
2024-02-17T04:50:43.838Z,2.42
2024-02-17T04:53:12.068Z,2.43
2024-02-17T04:55:40.292Z,2.41
2024-02-17T04:58:08.505Z,2.39
2024-02-17T05:00:36.820Z,2.40
2024-02-17T05:03:05.374Z,2.40
2024-02-17T05:05:33.806Z,2.43
2024-02-17T05:08:02.108Z,2.42
2024-02-17T05:10:30.505Z,2.44
2024-02-17T05:12:58.867Z,2.44
2024-02-17T05:15:27.869Z,2.45
2024-02-17T05:17:56.088Z,2.42
2024-02-17T05:20:24.299Z,2.44
2024-02-17T05:22:52.405Z,2.45
2024-02-17T05:25:20.731Z,2.47
2024-02-17T05:27:49.069Z,2.47
2024-02-17T05:30:18.753Z,2.46
2024-02-17T05:32:47.428Z,2.46
2024-02-17T05:35:15.940Z,2.49
2024-02-17T05:37:44.810Z,2.48
2024-02-17T05:40:13.889Z,2.47
2024-02-17T05:42:42.221Z,2.44
2024-02-17T05:45:11.146Z,2.47
2024-02-17T05:47:39.858Z,2.49
2024-02-17T05:50:08.728Z,2.51
2024-02-17T05:52:36.887Z,2.54
2024-02-17T05:55:05.602Z,2.54
2024-02-17T05:57:33.776Z,2.55
2024-02-17T06:00:02.248Z,2.55
2024-02-17T06:02:35.688Z,2.58
2024-02-17T06:05:04.526Z,2.60
2024-02-17T06:07:32.897Z,2.62
2024-02-17T06:10:01.154Z,2.63
2024-02-17T06:12:29.485Z,2.63
2024-02-17T06:14:57.680Z,2.63
2024-02-17T06:17:28.951Z,2.64
2024-02-17T06:20:15.909Z,2.66
2024-02-17T06:22:44.245Z,2.72
2024-02-17T06:25:12.501Z,2.74
2024-02-17T06:27:40.823Z,2.78
2024-02-17T06:30:15.140Z,2.79
2024-02-17T06:32:43.565Z,2.82
2024-02-17T06:35:12.250Z,2.82
2024-02-17T06:37:41.968Z,2.84
2024-02-17T06:40:10.699Z,2.85
2024-02-17T06:42:38.860Z,2.88
2024-02-17T06:45:07.717Z,2.89
2024-02-17T06:47:35.903Z,2.93
2024-02-17T06:50:04.706Z,2.93
2024-02-17T06:52:33.209Z,2.92
2024-02-17T06:55:01.323Z,2.91
2024-02-17T06:57:29.618Z,2.93
2024-02-17T06:59:57.982Z,2.95
2024-02-17T07:02:28.213Z,2.94
2024-02-17T07:04:57.829Z,2.93
2024-02-17T07:07:26.233Z,2.90
2024-02-17T07:09:54.470Z,2.91
2024-02-17T07:12:22.710Z,2.96
2024-02-17T07:14:52.204Z,3.01
2024-02-17T07:17:20.521Z,3.06
2024-02-17T07:19:48.796Z,3.06
2024-02-17T07:22:17.062Z,3.07
2024-02-17T07:24:45.242Z,3.10
2024-02-17T07:27:13.574Z,3.13
2024-02-17T07:29:43.426Z,3.14
2024-02-17T07:32:12.368Z,3.16
2024-02-17T07:34:43.447Z,3.18
2024-02-17T07:37:11.716Z,3.21
2024-02-17T07:39:42.220Z,3.25
2024-02-17T07:42:10.580Z,3.28
2024-02-17T07:44:38.971Z,3.26
2024-02-17T07:47:07.400Z,3.32
2024-02-17T07:49:36.005Z,3.34
2024-02-17T07:52:04.936Z,3.36
2024-02-17T07:54:33.234Z,3.40
2024-02-17T07:57:01.479Z,3.43
2024-02-17T07:59:29.698Z,3.41
2024-02-17T08:01:57.851Z,3.46
2024-02-17T08:04:26.276Z,3.49
2024-02-17T08:06:54.635Z,3.54
2024-02-17T08:09:22.906Z,3.54
2024-02-17T08:11:56.066Z,3.59
2024-02-17T08:14:25.619Z,3.62
2024-02-17T08:16:55.163Z,3.63
2024-02-17T08:19:23.537Z,3.65
2024-02-17T08:21:52.031Z,3.64
2024-02-17T08:24:20.293Z,3.64
2024-02-17T08:26:48.550Z,3.65
2024-02-17T08:29:16.775Z,3.67
2024-02-17T08:31:54.349Z,3.71
2024-02-17T08:34:22.686Z,3.72
2024-02-17T08:36:50.991Z,3.74
2024-02-17T08:39:19.712Z,3.77
2024-02-17T08:41:48.017Z,3.79
2024-02-17T08:44:16.230Z,3.79
2024-02-17T08:46:45.753Z,3.81
2024-02-17T08:49:14.105Z,3.83
2024-02-17T08:51:42.703Z,3.81
2024-02-17T08:54:11.294Z,3.82
2024-02-17T08:56:39.945Z,3.78
2024-02-17T08:59:08.067Z,3.80
2024-02-17T09:01:36.342Z,3.82
2024-02-17T09:04:05.078Z,3.84
2024-02-17T09:06:33.486Z,3.85
2024-02-17T09:09:02.145Z,3.82
2024-02-17T09:11:31.109Z,3.77
2024-02-17T09:13:59.206Z,3.81
2024-02-17T09:16:28.713Z,3.82
2024-02-17T09:18:56.914Z,3.84
2024-02-17T09:21:25.296Z,3.82
2024-02-17T09:23:53.574Z,3.86
2024-02-17T09:26:22.897Z,3.87
2024-02-17T09:28:51.323Z,3.92
2024-02-17T09:31:19.636Z,3.97
2024-02-17T09:33:47.857Z,3.96
2024-02-17T09:36:16.342Z,4.00
2024-02-17T09:38:44.709Z,4.02
2024-02-17T09:41:13.122Z,4.02
2024-02-17T09:43:42.343Z,4.04
2024-02-17T09:46:13.537Z,4.01
2024-02-17T09:48:42.375Z,4.00
2024-02-17T09:51:10.943Z,4.01
2024-02-17T09:53:39.845Z,4.03
2024-02-17T09:56:08.075Z,4.05
2024-02-17T09:58:38.226Z,4.07
2024-02-17T10:01:06.585Z,4.11
2024-02-17T10:03:39.629Z,4.15
2024-02-17T10:06:12.665Z,4.18
2024-02-17T10:08:42.124Z,4.24
2024-02-17T10:11:13.449Z,4.25
2024-02-17T10:13:43.569Z,4.33
2024-02-17T10:16:13.505Z,4.40
2024-02-17T10:18:43.306Z,4.46
2024-02-17T10:21:13.336Z,4.51
2024-02-17T10:23:41.561Z,4.52
2024-02-17T10:26:09.698Z,4.60
2024-02-17T10:28:37.807Z,4.70
2024-02-17T10:31:06.022Z,4.79
2024-02-17T10:33:34.531Z,4.87
2024-02-17T10:36:02.971Z,4.93
2024-02-17T10:38:31.697Z,5.03
2024-02-17T10:41:00.217Z,5.09
2024-02-17T10:43:28.342Z,5.12
2024-02-17T10:45:58.428Z,5.15
2024-02-17T10:48:28.156Z,5.19
2024-02-17T10:50:56.522Z,5.17
2024-02-17T10:53:44.210Z,5.11
2024-02-17T10:56:17.197Z,5.15
2024-02-17T10:58:49.386Z,5.17
2024-02-17T11:01:19.611Z,5.20
2024-02-17T11:03:48.453Z,5.25
2024-02-17T11:06:19.016Z,5.30
2024-02-17T11:08:47.681Z,5.32
2024-02-17T11:11:25.957Z,5.34
2024-02-17T11:13:56.189Z,5.34
2024-02-17T11:16:25.478Z,5.36
2024-02-17T11:18:56.922Z,5.41
2024-02-17T11:21:27.255Z,5.48
2024-02-17T11:24:00.383Z,5.53
2024-02-17T11:26:36.849Z,5.55
2024-02-17T11:29:09.658Z,5.57
2024-02-17T11:31:37.778Z,5.61
2024-02-17T11:34:06.298Z,5.64
2024-02-17T11:36:35.710Z,5.61
2024-02-17T11:39:04.883Z,5.63
2024-02-17T11:41:33.667Z,5.60
2024-02-17T11:44:02.738Z,5.59
2024-02-17T11:46:32.022Z,5.60
2024-02-17T11:49:09.352Z,5.60
2024-02-17T11:51:39.553Z,5.61
2024-02-17T11:54:08.050Z,5.63
2024-02-17T11:56:36.976Z,5.60
2024-02-17T11:59:05.458Z,5.58
2024-02-17T12:01:38.536Z,5.60
2024-02-17T12:04:08.460Z,5.61
2024-02-17T12:06:36.972Z,5.57
2024-02-17T12:09:05.363Z,5.56
2024-02-17T12:11:33.717Z,5.53
2024-02-17T12:14:02.519Z,5.54
2024-02-17T12:16:30.928Z,5.50
2024-02-17T12:18:59.665Z,5.48
2024-02-17T12:21:28.560Z,5.49
2024-02-17T12:23:56.904Z,5.44
2024-02-17T12:26:37.477Z,5.36
2024-02-17T12:29:10.400Z,5.27
2024-02-17T12:31:38.615Z,5.27
2024-02-17T12:34:10.255Z,5.27
2024-02-17T12:36:38.717Z,5.27
2024-02-17T12:39:08.195Z,5.28
2024-02-17T12:41:36.619Z,5.31
2024-02-17T12:44:05.185Z,5.30
2024-02-17T12:46:38.100Z,5.31
2024-02-17T12:49:08.551Z,5.33
2024-02-17T12:51:39.572Z,5.31
2024-02-17T12:54:09.269Z,5.28
2024-02-17T12:56:37.484Z,5.26
2024-02-17T12:59:05.696Z,5.22
2024-02-17T13:01:33.925Z,5.20
2024-02-17T13:04:02.350Z,5.20
2024-02-17T13:06:31.265Z,5.14
2024-02-17T13:09:02.018Z,5.11
2024-02-17T13:11:30.752Z,5.10
2024-02-17T13:13:59.031Z,5.15
2024-02-17T13:16:27.853Z,5.20
2024-02-17T13:18:58.792Z,5.18
2024-02-17T13:21:27.722Z,5.14
2024-02-17T13:23:56.449Z,5.12
2024-02-17T13:26:24.746Z,5.08
2024-02-17T13:28:52.977Z,5.10
2024-02-17T13:31:21.351Z,5.10
2024-02-17T13:33:50.060Z,5.08
2024-02-17T13:36:19.249Z,5.09
2024-02-17T13:38:47.664Z,5.07
2024-02-17T13:41:15.896Z,5.07
2024-02-17T13:43:46.387Z,5.07
2024-02-17T13:46:16.749Z,5.03
2024-02-17T13:48:45.169Z,5.03
2024-02-17T13:51:13.964Z,5.03
2024-02-17T13:53:43.001Z,4.96
2024-02-17T13:56:11.114Z,4.96
2024-02-17T13:58:39.454Z,4.96
2024-02-17T14:01:08.933Z,4.95
2024-02-17T14:03:37.690Z,4.96
2024-02-17T14:06:06.164Z,4.96
2024-02-17T14:08:34.325Z,4.96
2024-02-17T14:11:02.587Z,4.98
2024-02-17T14:13:30.870Z,4.98
2024-02-17T14:15:59.172Z,4.99
2024-02-17T14:18:29.166Z,5.02
2024-02-17T14:21:02.478Z,5.03
2024-02-17T14:23:30.671Z,5.01
2024-02-17T14:25:59.020Z,5.02
2024-02-17T14:28:27.888Z,5.04
2024-02-17T14:30:56.196Z,5.01
2024-02-17T14:33:24.787Z,4.97
2024-02-17T14:35:53.082Z,4.95
2024-02-17T14:38:21.310Z,4.97
2024-02-17T14:40:49.532Z,4.98
2024-02-17T14:43:17.806Z,4.97
2024-02-17T14:45:46.893Z,4.99
2024-02-17T14:48:15.322Z,4.99
2024-02-17T14:50:44.929Z,4.98
2024-02-17T14:53:13.233Z,5.00
2024-02-17T14:55:41.470Z,5.00
2024-02-17T14:58:10.083Z,5.01
2024-02-17T15:00:43.183Z,5.00
2024-02-17T15:03:12.215Z,5.01
2024-02-17T15:05:40.561Z,5.04
2024-02-17T15:08:09.887Z,5.05
2024-02-17T15:10:38.067Z,5.06
2024-02-17T15:13:06.644Z,5.05
2024-02-17T15:15:35.088Z,5.03
2024-02-17T15:18:05.672Z,5.03
2024-02-17T15:20:34.297Z,5.01
2024-02-17T15:23:02.512Z,5.02
2024-02-17T15:25:30.741Z,5.03
2024-02-17T15:28:01.234Z,5.00
2024-02-17T15:30:29.833Z,4.99
2024-02-17T15:32:58.246Z,4.98
2024-02-17T15:35:26.434Z,4.98
2024-02-17T15:37:54.651Z,5.00
2024-02-17T15:40:22.866Z,5.00
2024-02-17T15:42:52.560Z,4.97
2024-02-17T15:45:20.964Z,4.95
2024-02-17T15:47:53.510Z,4.96
2024-02-17T15:50:21.824Z,4.97
2024-02-17T15:52:50.490Z,4.97
2024-02-17T15:55:19.028Z,4.98
2024-02-17T15:57:51.687Z,4.98
2024-02-17T16:00:23.289Z,4.99
2024-02-17T16:02:53.468Z,5.01
2024-02-17T16:05:21.925Z,5.02
2024-02-17T16:07:50.252Z,5.01
2024-02-17T16:10:18.565Z,5.01
2024-02-17T16:12:48.338Z,4.99
2024-02-17T16:15:19.699Z,4.98
2024-02-17T16:17:52.883Z,4.96
2024-02-17T16:20:21.306Z,4.96
2024-02-17T16:22:49.873Z,4.99
2024-02-17T16:25:18.429Z,4.98
2024-02-17T16:27:46.711Z,4.97
2024-02-17T16:30:15.065Z,4.96
2024-02-17T16:32:43.452Z,4.94
2024-02-17T16:35:12.527Z,4.92
2024-02-17T16:37:42.593Z,4.90
2024-02-17T16:40:11.491Z,4.89
2024-02-17T16:42:39.629Z,4.88
2024-02-17T16:45:08.343Z,4.88
2024-02-17T16:47:37.484Z,4.85
2024-02-17T16:50:08.249Z,4.85
2024-02-17T16:52:36.682Z,4.86
2024-02-17T16:55:05.643Z,4.87
2024-02-17T16:57:35.041Z,4.88
2024-02-17T17:00:04.348Z,4.92
2024-02-17T17:02:32.595Z,4.95
2024-02-17T17:05:02.353Z,4.96
2024-02-17T17:07:30.908Z,4.97
2024-02-17T17:09:59.958Z,4.99
2024-02-17T17:12:28.896Z,4.99
2024-02-17T17:14:57.686Z,5.01
2024-02-17T17:17:26.349Z,5.02
2024-02-17T17:19:55.961Z,5.03
2024-02-17T17:22:35.150Z,5.03
2024-02-17T17:25:11.038Z,5.05
2024-02-17T17:27:39.424Z,5.08
2024-02-17T17:30:12.754Z,5.07
2024-02-17T17:32:42.367Z,5.08
2024-02-17T17:35:11.401Z,5.09
2024-02-17T17:37:39.793Z,5.09
2024-02-17T17:40:10.780Z,5.08
2024-02-17T17:42:48.683Z,5.08
2024-02-17T17:45:25.402Z,5.09
2024-02-17T17:47:53.773Z,5.11
2024-02-17T17:50:25.327Z,5.12
2024-02-17T17:52:54.953Z,5.13
2024-02-17T17:55:24.477Z,5.15
2024-02-17T17:57:52.776Z,5.14
2024-02-17T18:00:22.542Z,5.13
2024-02-17T18:02:52.570Z,5.14
2024-02-17T18:05:20.895Z,5.15
2024-02-17T18:07:49.498Z,5.13
2024-02-17T18:10:18.150Z,5.12
2024-02-17T18:12:46.315Z,5.11
2024-02-17T18:15:14.729Z,5.10
2024-02-17T18:17:44.373Z,5.08
2024-02-17T18:20:13.239Z,5.07
2024-02-17T18:22:41.665Z,5.06
2024-02-17T18:25:10.520Z,5.04
2024-02-17T18:27:39.036Z,5.02
2024-02-17T18:30:08.474Z,5.01
2024-02-17T18:32:37.908Z,5.02
2024-02-17T18:35:07.335Z,5.02
2024-02-17T18:37:35.793Z,5.02
2024-02-17T18:40:06.240Z,5.03
2024-02-17T18:42:35.103Z,5.10
2024-02-17T18:45:03.659Z,5.14
2024-02-17T18:47:31.866Z,5.16
2024-02-17T18:50:00.361Z,5.17
2024-02-17T18:52:30.274Z,5.15
2024-02-17T18:54:58.874Z,5.12
2024-02-17T18:57:27.417Z,5.08
2024-02-17T18:59:55.791Z,5.03
2024-02-17T19:02:24.109Z,5.04
2024-02-17T19:04:52.346Z,5.07
2024-02-17T19:07:20.565Z,5.08
2024-02-17T19:09:48.869Z,5.08
2024-02-17T19:12:17.238Z,5.10
2024-02-17T19:14:49.334Z,5.11
2024-02-17T19:17:18.181Z,5.08
2024-02-17T19:19:46.468Z,5.06
2024-02-17T19:22:15.226Z,5.07
2024-02-17T19:24:43.698Z,5.01
2024-02-17T19:27:12.031Z,4.98
2024-02-17T19:29:40.253Z,5.00
2024-02-17T19:32:08.481Z,5.02
2024-02-17T19:34:36.716Z,5.01
2024-02-17T19:37:05.105Z,5.03
2024-02-17T19:39:33.619Z,5.01
2024-02-17T19:42:02.164Z,4.98
2024-02-17T19:44:30.395Z,4.99
2024-02-17T19:46:58.505Z,4.99
2024-02-17T19:49:26.916Z,4.99
2024-02-17T19:51:55.322Z,4.99
2024-02-17T19:54:23.687Z,5.01
2024-02-17T19:56:51.879Z,5.04
2024-02-17T19:59:20.218Z,5.08
2024-02-17T20:01:48.619Z,5.12
2024-02-17T20:04:17.119Z,5.13
2024-02-17T20:06:45.640Z,5.12
2024-02-17T20:09:14.654Z,5.09
2024-02-17T20:11:43.210Z,5.05
2024-02-17T20:14:11.337Z,5.04
2024-02-17T20:16:39.950Z,5.06
2024-02-17T20:19:09.554Z,5.06
2024-02-17T20:21:39.986Z,5.05
2024-02-17T20:24:08.469Z,5.07
2024-02-17T20:26:36.645Z,5.06
2024-02-17T20:29:04.769Z,5.06
2024-02-17T20:31:32.998Z,5.06
2024-02-17T20:34:01.542Z,5.05
2024-02-17T20:36:29.966Z,5.02
2024-02-17T20:38:58.545Z,5.03
2024-02-17T20:41:26.965Z,5.04
2024-02-17T20:43:55.313Z,5.05
2024-02-17T20:46:23.809Z,5.06
2024-02-17T20:48:52.232Z,5.09
2024-02-17T20:51:20.628Z,5.12
2024-02-17T20:53:48.984Z,5.14
2024-02-17T20:56:17.201Z,5.15
2024-02-17T20:58:45.511Z,5.17
2024-02-17T21:01:13.931Z,5.16
2024-02-17T21:03:42.504Z,5.17
2024-02-17T21:06:11.719Z,5.17
2024-02-17T21:08:40.003Z,5.19
2024-02-17T21:11:09.372Z,5.19
2024-02-17T21:13:37.650Z,5.18
2024-02-17T21:16:06.171Z,5.14
2024-02-17T21:18:34.749Z,5.12
2024-02-17T21:21:03.208Z,5.12
2024-02-17T21:23:31.330Z,5.08
2024-02-17T21:25:59.752Z,5.08
2024-02-17T21:28:28.605Z,5.08
2024-02-17T21:30:57.465Z,5.10
2024-02-17T21:33:25.797Z,5.11
2024-02-17T21:35:54.042Z,5.08
2024-02-17T21:38:22.259Z,5.07
2024-02-17T21:40:50.375Z,5.06
2024-02-17T21:43:18.595Z,5.06
2024-02-17T21:45:50.821Z,5.06
2024-02-17T21:48:19.350Z,5.05
2024-02-17T21:50:47.782Z,5.04
2024-02-17T21:53:15.997Z,5.05
2024-02-17T21:55:46.576Z,5.03
2024-02-17T21:58:16.452Z,5.03
2024-02-17T22:00:45.010Z,5.06
2024-02-17T22:03:13.407Z,5.07
2024-02-17T22:05:41.798Z,5.09
2024-02-17T22:08:10.025Z,5.10
2024-02-17T22:10:38.167Z,5.09
2024-02-17T22:13:06.321Z,5.11
2024-02-17T22:15:34.815Z,5.10
2024-02-17T22:18:03.290Z,5.11
2024-02-17T22:20:31.733Z,5.08
2024-02-17T22:22:59.862Z,5.07
2024-02-17T22:25:28.082Z,5.06
2024-02-17T22:27:56.348Z,5.06
2024-02-17T22:30:24.624Z,5.05
2024-02-17T22:32:52.846Z,5.04
2024-02-17T22:35:21.382Z,5.05
2024-02-17T22:37:50.288Z,5.05
2024-02-17T22:40:23.949Z,5.02
2024-02-17T22:42:53.183Z,4.96
2024-02-17T22:45:21.430Z,4.92
2024-02-17T22:47:50.239Z,4.90
2024-02-17T22:50:18.508Z,4.89
2024-02-17T22:52:46.928Z,4.85
2024-02-17T22:55:16.564Z,4.83
2024-02-17T22:57:44.725Z,4.81
2024-02-17T23:00:22.818Z,4.81
2024-02-17T23:02:52.079Z,4.82
2024-02-17T23:05:24.673Z,4.82
2024-02-17T23:07:54.917Z,4.81
2024-02-17T23:10:23.840Z,4.83
2024-02-17T23:12:51.903Z,4.83
2024-02-17T23:15:20.158Z,4.81
2024-02-17T23:17:48.697Z,4.80
2024-02-17T23:35:22.411Z,5.15
2024-02-17T23:37:50.644Z,5.22
2024-02-17T23:40:20.166Z,5.21
2024-02-17T23:42:48.385Z,5.24
2024-02-17T23:45:16.780Z,5.20
2024-02-17T23:47:45.149Z,5.18
2024-02-17T23:50:13.437Z,5.19
2024-02-17T23:52:41.556Z,5.18
2024-02-17T23:55:10.249Z,5.17
2024-02-17T23:57:39.662Z,5.14
